Time;durP1;ratioP1;P1;durP2;ratioP2;P2;SDS_P1;SDS_P2;PMS_P1;PMS_P2;Temp;Humidity;BMP_temperature;BMP_pressure;BME280_temperature;BME280_humidity;BME280_pressure;Samples;Min_cycle;Max_cycle;Signal;HPM_P1;HPM_P2
2022/06/08 00:01:54;;;;;;;18.27;13.63;;;16.90;91.10;;;;;;5093634;28;20040;-80
2022/06/08 00:04:23;;;;;;;17.00;12.90;;;16.80;91.30;;;;;;5075814;28;20031;-80
2022/06/08 00:06:51;;;;;;;17.63;13.90;;;16.80;91.50;;;;;;5093954;28;20016;-81
2022/06/08 00:09:17;;;;;;;19.15;12.80;;;16.70;91.60;;;;;;5075702;28;20020;-81
2022/06/08 00:11:43;;;;;;;19.85;14.48;;;16.60;91.80;;;;;;5058880;28;20081;-81
2022/06/08 00:14:09;;;;;;;18.35;13.75;;;16.60;92.10;;;;;;5075538;28;20452;-80
2022/06/08 00:16:34;;;;;;;16.65;13.30;;;16.60;92.30;;;;;;5075370;28;20020;-80
2022/06/08 00:19:00;;;;;;;20.85;13.93;;;16.50;92.60;;;;;;5058841;28;20028;-81
2022/06/08 00:21:26;;;;;;;18.15;13.98;;;16.50;92.80;;;;;;5075510;28;20074;-80
2022/06/08 00:23:51;;;;;;;19.35;13.93;;;16.50;93.00;;;;;;5075498;28;20076;-81
2022/06/08 00:26:17;;;;;;;19.35;12.85;;;16.40;93.30;;;;;;5075573;28;20031;-81
2022/06/08 00:28:43;;;;;;;18.45;14.27;;;16.50;93.60;;;;;;5075236;28;20024;-81
2022/06/08 00:31:09;;;;;;;20.23;14.20;;;16.40;94.00;;;;;;5058567;28;20581;-81
2022/06/08 00:33:35;;;;;;;19.88;14.30;;;16.40;94.20;;;;;;5075346;28;20020;-81
2022/06/08 00:36:00;;;;;;;21.23;14.70;;;16.50;94.40;;;;;;5093490;28;20034;-81
2022/06/08 00:38:26;;;;;;;20.73;15.07;;;16.40;94.50;;;;;;5093395;28;20032;-80
2022/06/08 00:41:00;;;;;;;18.50;14.18;;;16.40;94.70;;;;;;5092620;28;20048;-81
2022/06/08 00:43:26;;;;;;;22.00;13.75;;;16.40;94.90;;;;;;5093227;28;20016;-80
2022/06/08 00:45:52;;;;;;;21.02;13.68;;;16.40;95.10;;;;;;5078436;28;20044;-81
2022/06/08 00:48:18;;;;;;;19.23;13.98;;;16.30;95.30;;;;;;5072913;28;20025;-81
2022/06/08 00:50:47;;;;;;;21.67;14.50;;;16.40;95.50;;;;;;5072741;28;20071;-80
2022/06/08 00:53:17;;;;;;;21.10;14.95;;;16.40;95.70;;;;;;5054872;28;20130;-80
2022/06/08 00:55:44;;;;;;;22.10;14.85;;;16.40;95.90;;;;;;5054859;28;20021;-80
2022/06/08 00:58:26;;;;;;;22.90;14.30;;;16.40;96.00;;;;;;5055073;28;20035;-81
2022/06/08 01:00:53;;;;;;;20.95;14.02;;;16.50;96.20;;;;;;5081757;28;20426;-81
2022/06/08 01:03:19;;;;;;;19.83;12.75;;;16.50;96.20;;;;;;5058227;28;20051;-81
2022/06/08 01:06:03;;;;;;;18.20;14.10;;;16.50;96.30;;;;;;5058484;28;20056;-81
2022/06/08 01:08:47;;;;;;;23.63;14.15;;;16.60;96.40;;;;;;5059013;28;20453;-80
2022/06/08 01:11:35;;;;;;;19.27;13.85;;;16.60;96.50;;;;;;5077074;28;20053;-80
2022/06/08 01:14:05;;;;;;;19.30;13.90;;;16.50;96.60;;;;;;5076665;28;20017;-80
2022/06/08 01:16:32;;;;;;;19.55;14.70;;;16.60;96.60;;;;;;5058736;28;20104;-80
2022/06/08 01:19:00;;;;;;;18.60;13.13;;;16.60;96.70;;;;;;5076615;28;20097;-80
2022/06/08 01:21:25;;;;;;;19.70;14.10;;;16.50;96.70;;;;;;5084953;28;20043;-80
2022/06/08 01:23:55;;;;;;;21.48;14.15;;;16.60;96.80;;;;;;5075730;28;20407;-80
2022/06/08 01:26:33;;;;;;;21.05;14.80;;;16.50;96.90;;;;;;5085205;28;20030;-80
2022/06/08 01:29:23;;;;;;;19.05;14.43;;;16.60;97.10;;;;;;5091125;28;20035;-80
2022/06/08 01:32:08;;;;;;;19.92;13.63;;;16.60;97.10;;;;;;5093704;28;20024;-80
2022/06/08 01:34:45;;;;;;;21.90;15.20;;;16.60;97.10;;;;;;5092906;28;20031;-80
2022/06/08 01:37:21;;;;;;;19.17;14.90;;;16.60;97.20;;;;;;5077719;28;20452;-80
2022/06/08 01:40:10;;;;;;;23.15;15.02;;;16.50;97.30;;;;;;5077476;28;20054;-80
2022/06/08 01:43:02;;;;;;;17.98;13.73;;;16.50;97.40;;;;;;5045579;28;20048;-80
2022/06/08 01:45:43;;;;;;;19.42;14.38;;;16.50;97.40;;;;;;5077961;28;20035;-79
2022/06/08 01:48:41;;;;;;;21.23;14.85;;;16.50;97.40;;;;;;5096245;28;20347;-79
2022/06/08 01:51:25;;;;;;;21.35;14.90;;;16.60;97.60;;;;;;5077907;28;20030;-80
2022/06/08 01:54:00;;;;;;;19.23;14.23;;;16.60;97.50;;;;;;5096068;28;20024;-80
2022/06/08 01:56:42;;;;;;;19.77;14.85;;;16.50;97.50;;;;;;5078522;28;20028;-80
2022/06/08 01:59:42;;;;;;;21.23;15.40;;;16.60;97.70;;;;;;5096039;28;20032;-79
2022/06/08 02:02:22;;;;;;;22.08;15.85;;;16.50;97.80;;;;;;5096192;28;20024;-80
2022/06/08 02:05:12;;;;;;;24.63;16.95;;;16.50;97.80;;;;;;5078135;28;20077;-80
2022/06/08 02:07:48;;;;;;;23.30;16.38;;;16.50;97.90;;;;;;5078241;28;20031;-80
2022/06/08 02:10:20;;;;;;;22.15;16.45;;;16.50;97.90;;;;;;5077657;28;20482;-80
2022/06/08 02:12:54;;;;;;;21.30;16.70;;;16.60;98.00;;;;;;5077458;28;20027;-80
2022/06/08 02:15:46;;;;;;;27.92;18.02;;;16.50;98.00;;;;;;5095944;28;20077;-80
2022/06/08 02:18:29;;;;;;;26.52;17.83;;;16.60;98.20;;;;;;5068537;28;20038;-80
2022/06/08 02:21:02;;;;;;;27.15;18.40;;;16.60;98.20;;;;;;5077579;28;20142;-80
2022/06/08 02:23:41;;;;;;;24.52;18.23;;;16.60;98.30;;;;;;5077725;28;20024;-80
2022/06/08 02:26:14;;;;;;;27.67;18.75;;;16.60;98.20;;;;;;5077722;28;20027;-80
2022/06/08 02:28:52;;;;;;;26.55;19.90;;;16.60;98.20;;;;;;5077804;28;20020;-80
2022/06/08 02:31:49;;;;;;;28.67;19.40;;;16.50;98.20;;;;;;5095668;28;20028;-80
2022/06/08 02:34:31;;;;;;;26.75;18.45;;;16.40;98.20;;;;;;5094730;28;20107;-80
2022/06/08 02:37:24;;;;;;;28.10;19.55;;;16.40;98.30;;;;;;5078530;28;20024;-79
2022/06/08 02:39:59;;;;;;;29.75;19.70;;;16.40;98.30;;;;;;5097392;28;20161;-79
2022/06/08 02:42:34;;;;;;;25.42;18.00;;;16.30;98.30;;;;;;5095543;28;20020;-79
2022/06/08 02:45:45;;;;;;;26.38;17.98;;;16.30;98.40;;;;;;5077285;28;20505;-80
2022/06/08 02:48:14;;;;;;;27.92;19.13;;;16.30;98.50;;;;;;5094658;28;20028;-80
2022/06/08 02:50:56;;;;;;;26.70;19.55;;;16.30;98.50;;;;;;5098592;28;20401;-79
2022/06/08 02:53:22;;;;;;;26.05;18.92;;;16.20;98.50;;;;;;5078176;28;20020;-79
2022/06/08 02:56:26;;;;;;;26.73;18.88;;;16.10;98.60;;;;;;5077715;28;20020;-80
2022/06/08 02:59:14;;;;;;;25.00;18.33;;;16.10;98.70;;;;;;5077295;28;20059;-80
2022/06/08 03:01:49;;;;;;;26.92;18.52;;;16.00;98.80;;;;;;5076939;28;20126;-80
2022/06/08 03:04:19;;;;;;;25.05;18.35;;;16.00;98.80;;;;;;5076781;28;20406;-80
2022/06/08 03:06:52;;;;;;;28.27;19.73;;;16.00;98.90;;;;;;5095067;28;20028;-79
2022/06/08 03:09:19;;;;;;;26.17;19.23;;;16.00;99.00;;;;;;5076665;28;20135;-79
2022/06/08 03:11:52;;;;;;;25.15;18.50;;;15.90;99.10;;;;;;5043893;28;20020;-80
2022/06/08 03:14:19;;;;;;;29.10;20.33;;;15.90;99.10;;;;;;5094748;28;20039;-79
2022/06/08 03:16:56;;;;;;;30.70;20.33;;;15.90;99.20;;;;;;5060424;28;20035;-79
2022/06/08 03:19:23;;;;;;;25.70;18.25;;;15.90;99.30;;;;;;5076416;28;20024;-79
2022/06/08 03:21:49;;;;;;;28.35;19.85;;;15.90;99.30;;;;;;5094693;28;20082;-79
2022/06/08 03:24:17;;;;;;;25.25;18.50;;;15.80;99.40;;;;;;5093949;28;20376;-79
2022/06/08 03:26:47;;;;;;;27.20;19.77;;;15.80;99.50;;;;;;5075753;28;20027;-78
2022/06/08 03:29:13;;;;;;;27.27;19.25;;;15.80;99.60;;;;;;5069250;28;20028;-79
2022/06/08 03:31:38;;;;;;;27.17;19.42;;;15.80;99.60;;;;;;5066441;28;20024;-80
2022/06/08 03:34:04;;;;;;;29.35;19.40;;;15.80;99.60;;;;;;5076276;28;20028;-80
2022/06/08 03:36:30;;;;;;;29.90;19.65;;;15.80;99.60;;;;;;5076569;28;20035;-80
2022/06/08 03:38:55;;;;;;;27.85;19.67;;;15.80;99.70;;;;;;5075981;28;20452;-80
2022/06/08 03:41:21;;;;;;;26.10;19.45;;;15.80;99.70;;;;;;5076055;28;20040;-79
2022/06/08 03:43:46;;;;;;;26.30;19.58;;;15.80;99.80;;;;;;5094092;28;20032;-79
2022/06/08 03:46:13;;;;;;;26.52;19.77;;;15.80;99.90;;;;;;5059219;28;20452;-79
2022/06/08 03:48:40;;;;;;;29.05;21.27;;;15.80;99.90;;;;;;5075928;28;20024;-79
2022/06/08 03:51:07;;;;;;;28.95;19.98;;;15.80;99.90;;;;;;5076062;28;20026;-79
2022/06/08 03:53:37;;;;;;;27.40;19.35;;;15.80;99.90;;;;;;5076181;28;20027;-79
2022/06/08 03:56:06;;;;;;;27.52;20.08;;;15.80;99.90;;;;;;5093932;28;20078;-79
2022/06/08 03:58:32;;;;;;;25.48;19.33;;;15.80;99.90;;;;;;5093529;28;20016;-79
2022/06/08 04:00:58;;;;;;;29.00;20.88;;;15.80;99.90;;;;;;5075695;28;20066;-79
2022/06/08 04:03:24;;;;;;;29.70;21.05;;;15.80;99.90;;;;;;5094023;28;20024;-79
2022/06/08 04:05:50;;;;;;;30.48;20.23;;;15.80;99.90;;;;;;5075703;28;20027;-80
2022/06/08 04:08:15;;;;;;;26.98;20.52;;;15.80;99.90;;;;;;5058860;28;20436;-80
2022/06/08 04:10:41;;;;;;;26.90;19.55;;;15.90;99.90;;;;;;5093794;28;20031;-80
2022/06/08 04:13:07;;;;;;;28.67;20.48;;;15.80;99.90;;;;;;5075645;28;20019;-80
2022/06/08 04:15:41;;;;;;;25.75;19.17;;;15.80;99.90;;;;;;5075394;28;20388;-80
2022/06/08 04:18:07;;;;;;;26.48;18.98;;;15.80;99.90;;;;;;5075464;28;20370;-79
2022/06/08 04:20:34;;;;;;;28.58;20.02;;;15.80;99.90;;;;;;5075807;28;20031;-80
2022/06/08 04:23:00;;;;;;;25.67;18.80;;;15.80;99.90;;;;;;5093644;28;20024;-80
2022/06/08 04:25:27;;;;;;;26.92;19.02;;;15.80;99.90;;;;;;5059046;28;20024;-80
2022/06/08 04:27:53;;;;;;;28.05;19.50;;;15.90;99.90;;;;;;5093753;28;20028;-80
2022/06/08 04:30:19;;;;;;;25.02;18.70;;;15.90;99.90;;;;;;5075209;28;20040;-79
2022/06/08 04:32:45;;;;;;;25.13;17.30;;;16.00;99.90;;;;;;5075806;28;20024;-80
2022/06/08 04:35:11;;;;;;;27.15;18.35;;;15.90;99.90;;;;;;5075282;28;20054;-79
2022/06/08 04:37:37;;;;;;;25.50;18.73;;;16.00;99.90;;;;;;5058837;28;20115;-79
2022/06/08 04:40:07;;;;;;;25.92;17.73;;;16.00;99.90;;;;;;5074928;28;20036;-78
2022/06/08 04:42:33;;;;;;;22.30;16.60;;;16.10;99.90;;;;;;5093385;28;20525;-79
2022/06/08 04:44:59;;;;;;;25.38;17.52;;;16.10;99.90;;;;;;5075068;28;20016;-79
2022/06/08 04:47:24;;;;;;;24.10;18.35;;;16.10;99.90;;;;;;5075132;28;20020;-80
2022/06/08 04:49:50;;;;;;;27.00;18.10;;;16.10;99.90;;;;;;5075375;28;20031;-80
2022/06/08 04:52:16;;;;;;;23.73;17.48;;;16.10;99.90;;;;;;5075270;28;20108;-79
2022/06/08 04:54:42;;;;;;;24.20;17.35;;;16.20;99.90;;;;;;5072418;28;20029;-80
2022/06/08 04:57:08;;;;;;;21.35;16.02;;;16.30;99.90;;;;;;5072433;28;20036;-81
2022/06/08 04:59:33;;;;;;;24.20;16.63;;;16.30;99.90;;;;;;5074095;28;20494;-81
2022/06/08 05:01:59;;;;;;;20.55;14.77;;;16.40;99.90;;;;;;5071778;28;20047;-81
2022/06/08 05:04:24;;;;;;;21.60;15.93;;;16.40;99.90;;;;;;5058045;28;20182;-81
2022/06/08 05:06:50;;;;;;;22.15;15.20;;;16.40;99.90;;;;;;5074138;28;20034;-81
2022/06/08 05:09:16;;;;;;;20.23;15.32;;;16.50;99.90;;;;;;5091916;28;20020;-81
2022/06/08 05:11:42;;;;;;;20.20;15.82;;;16.60;99.90;;;;;;5057025;28;20393;-79
2022/06/08 05:14:08;;;;;;;19.25;14.65;;;16.60;99.90;;;;;;5058581;28;20032;-80
2022/06/08 05:16:33;;;;;;;19.55;14.90;;;16.60;99.90;;;;;;5058165;28;20028;-80
2022/06/08 05:18:59;;;;;;;18.75;14.45;;;16.70;99.90;;;;;;5058239;28;20038;-80
2022/06/08 05:21:24;;;;;;;17.23;12.85;;;16.80;99.90;;;;;;5074797;28;20171;-80
2022/06/08 05:23:51;;;;;;;15.80;12.45;;;16.90;99.90;;;;;;5074984;28;20028;-80
2022/06/08 05:26:16;;;;;;;17.38;12.40;;;16.90;99.90;;;;;;5074414;28;20020;-80
2022/06/08 05:28:43;;;;;;;14.95;11.77;;;17.10;99.90;;;;;;5092928;28;20024;-80
2022/06/08 05:31:09;;;;;;;17.83;12.85;;;17.10;99.90;;;;;;5092829;28;20024;-80
2022/06/08 05:33:36;;;;;;;16.58;12.00;;;17.20;99.90;;;;;;5074555;28;20046;-80
2022/06/08 05:36:02;;;;;;;15.35;11.63;;;17.30;99.90;;;;;;5074660;28;20043;-79
2022/06/08 05:38:28;;;;;;;16.73;11.60;;;17.30;99.90;;;;;;5074614;28;20028;-80
2022/06/08 05:40:54;;;;;;;14.13;11.05;;;17.30;99.90;;;;;;5092482;28;20533;-80
2022/06/08 05:43:21;;;;;;;13.95;11.50;;;17.40;99.90;;;;;;5074891;28;20497;-81
2022/06/08 05:45:47;;;;;;;17.70;11.15;;;17.40;99.90;;;;;;5074768;28;20107;-80
2022/06/08 05:48:14;;;;;;;12.68;9.65;;;17.50;99.90;;;;;;5076062;28;20112;-79
2022/06/08 05:50:41;;;;;;;14.48;10.90;;;17.50;99.90;;;;;;5096539;28;20016;-79
2022/06/08 05:53:06;;;;;;;15.50;11.00;;;17.60;99.90;;;;;;5096062;28;20024;-80
2022/06/08 05:55:32;;;;;;;15.68;9.73;;;17.60;99.90;;;;;;5044783;28;20427;-80
2022/06/08 05:57:58;;;;;;;14.80;10.13;;;17.60;99.90;;;;;;5096173;28;20475;-80
2022/06/08 06:00:29;;;;;;;12.75;9.80;;;17.70;99.80;;;;;;5061472;28;20081;-80
2022/06/08 06:02:54;;;;;;;13.80;9.68;;;17.80;99.80;;;;;;5096211;28;20012;-81
2022/06/08 06:05:24;;;;;;;11.88;8.32;;;17.80;99.70;;;;;;5061210;28;20130;-80
2022/06/08 06:07:51;;;;;;;11.23;8.48;;;17.90;99.60;;;;;;5095933;28;20024;-83
2022/06/08 06:10:17;;;;;;;10.85;8.27;;;17.90;99.50;;;;;;5077718;28;20043;-82
2022/06/08 06:12:43;;;;;;;10.30;7.32;;;17.90;99.40;;;;;;5077969;28;20073;-80
2022/06/08 06:15:11;;;;;;;9.55;8.02;;;18.00;99.30;;;;;;5077370;28;20020;-80
2022/06/08 06:17:37;;;;;;;9.80;7.47;;;18.10;99.20;;;;;;5056328;28;20024;-80
2022/06/08 06:20:03;;;;;;;10.45;7.07;;;18.10;99.40;;;;;;5067134;28;20016;-81
2022/06/08 06:22:32;;;;;;;10.15;6.80;;;18.20;99.00;;;;;;5068733;28;20171;-80
2022/06/08 06:24:58;;;;;;;8.82;5.85;;;18.30;98.90;;;;;;5077838;28;20020;-80
2022/06/08 06:27:24;;;;;;;9.82;6.45;;;18.30;98.70;;;;;;5060825;28;20028;-80
2022/06/08 06:29:51;;;;;;;8.23;6.10;;;18.30;98.60;;;;;;5061123;28;20111;-80
2022/06/08 06:32:25;;;;;;;9.60;6.85;;;18.40;98.50;;;;;;5077375;28;20035;-80
2022/06/08 06:34:51;;;;;;;11.15;6.47;;;18.50;98.40;;;;;;5095021;28;20055;-79
2022/06/08 06:37:17;;;;;;;10.85;8.15;;;18.50;98.40;;;;;;5060750;28;20460;-79
2022/06/08 06:39:42;;;;;;;12.95;8.68;;;18.60;98.40;;;;;;5077456;28;20031;-80
2022/06/08 06:42:17;;;;;;;14.40;8.93;;;18.70;98.30;;;;;;5060741;28;20548;-80
2022/06/08 06:44:43;;;;;;;11.60;8.63;;;18.70;98.20;;;;;;5076978;28;20344;-81
2022/06/08 06:47:09;;;;;;;11.00;8.48;;;18.80;98.20;;;;;;5030723;28;20472;-80
2022/06/08 06:49:35;;;;;;;11.43;8.15;;;18.90;98.00;;;;;;5040384;28;20029;-80
2022/06/08 06:52:00;;;;;;;11.73;9.23;;;18.90;97.70;;;;;;5057058;28;20032;-80
2022/06/08 06:54:26;;;;;;;11.10;8.20;;;18.90;97.60;;;;;;5040518;28;20021;-80
2022/06/08 06:56:52;;;;;;;11.80;8.75;;;18.90;97.40;;;;;;5040439;28;20460;-81
2022/06/08 06:59:17;;;;;;;11.35;7.40;;;18.90;97.30;;;;;;5056863;28;20070;-81
2022/06/08 07:01:43;;;;;;;12.88;7.82;;;18.90;97.30;;;;;;5074817;28;20033;-80
2022/06/08 07:04:09;;;;;;;11.07;7.30;;;19.00;97.30;;;;;;5056551;28;20021;-81
2022/06/08 07:06:34;;;;;;;10.15;7.07;;;19.00;97.20;;;;;;5057153;28;20056;-80
2022/06/08 07:09:00;;;;;;;9.48;6.82;;;19.10;97.40;;;;;;5056967;28;20483;-80
2022/06/08 07:11:33;;;;;;;10.65;6.35;;;19.20;97.00;;;;;;5075024;28;20044;-81
2022/06/08 07:14:00;;;;;;;8.07;5.18;;;19.20;96.80;;;;;;5062933;28;20106;-80
2022/06/08 07:16:26;;;;;;;8.57;5.10;;;19.30;96.70;;;;;;5076385;28;20378;-80
2022/06/08 07:18:52;;;;;;;7.85;5.07;;;19.30;96.50;;;;;;5076905;28;20032;-81
2022/06/08 07:21:18;;;;;;;7.22;5.15;;;19.30;96.40;;;;;;5076244;28;20123;-78
2022/06/08 07:23:44;;;;;;;5.70;3.80;;;19.40;96.60;;;;;;5076624;28;20016;-80
2022/06/08 07:26:10;;;;;;;7.18;4.03;;;19.40;96.10;;;;;;5095271;28;20024;-81
2022/06/08 07:28:36;;;;;;;6.57;3.78;;;19.40;95.90;;;;;;5078747;28;20471;-80
2022/06/08 07:31:02;;;;;;;6.75;3.20;;;19.50;95.60;;;;;;5061307;28;20020;-80
2022/06/08 07:33:28;;;;;;;5.53;3.47;;;19.50;95.60;;;;;;5060359;28;20032;-78
2022/06/08 07:35:54;;;;;;;7.45;3.95;;;19.50;95.70;;;;;;5059978;28;20496;-76
2022/06/08 07:38:21;;;;;;;5.28;3.63;;;19.60;95.40;;;;;;5076444;28;20051;-78
2022/06/08 07:40:47;;;;;;;7.55;3.35;;;19.60;95.40;;;;;;5076259;28;20132;-76
2022/06/08 07:43:12;;;;;;;6.60;3.92;;;19.70;95.30;;;;;;5060761;28;20451;-78
2022/06/08 07:45:38;;;;;;;6.55;2.75;;;19.70;95.10;;;;;;5077044;28;20028;-77
2022/06/08 07:50:48;;;;;;;;;;;19.70;94.40;;;;;;5092483;28;20057;-78
2022/06/08 07:53:15;;;;;;;5.22;2.90;;;19.80;94.20;;;;;;5084774;28;19904;-78
2022/06/08 07:55:41;;;;;;;8.48;3.03;;;19.80;94.10;;;;;;5067009;28;20422;-78
2022/06/08 07:58:07;;;;;;;6.40;2.78;;;19.80;93.70;;;;;;5075970;28;20024;-78
2022/06/08 08:00:33;;;;;;;6.13;2.70;;;19.80;93.60;;;;;;5075494;28;20051;-78
2022/06/08 08:02:59;;;;;;;6.53;3.40;;;19.80;93.60;;;;;;5075838;28;20020;-77
2022/06/08 08:05:26;;;;;;;6.20;2.28;;;19.80;93.50;;;;;;5065766;28;20016;-78
2022/06/08 08:07:52;;;;;;;4.15;2.20;;;19.90;93.50;;;;;;5083868;28;20009;-78
2022/06/08 08:10:21;;;;;;;5.82;2.63;;;20.00;93.40;;;;;;5088368;28;20054;-77
2022/06/08 08:12:48;;;;;;;7.07;2.60;;;20.10;93.10;;;;;;5093295;28;20127;-78
2022/06/08 08:15:16;;;;;;;4.50;2.08;;;20.20;93.00;;;;;;5075501;28;20055;-78
2022/06/08 08:17:42;;;;;;;5.63;2.47;;;20.40;93.00;;;;;;5075626;28;20419;-78
2022/06/08 08:20:09;;;;;;;5.40;2.20;;;20.60;92.80;;;;;;5074805;28;20004;-78
2022/06/08 08:22:35;;;;;;;5.57;2.53;;;20.70;92.50;;;;;;5058542;28;20024;-78
2022/06/08 08:25:00;;;;;;;5.47;1.95;;;20.80;92.30;;;;;;5058540;28;20155;-78
2022/06/08 08:27:27;;;;;;;4.70;2.05;;;20.90;92.10;;;;;;5042165;28;20065;-78
2022/06/08 08:29:52;;;;;;;4.18;2.10;;;21.00;91.70;;;;;;5075469;28;20031;-78
2022/06/08 08:32:18;;;;;;;5.40;2.10;;;21.10;91.50;;;;;;5075448;28;20023;-78
2022/06/08 08:34:43;;;;;;;4.75;1.65;;;21.10;91.00;;;;;;5075170;28;20037;-78
2022/06/08 08:37:09;;;;;;;5.53;1.77;;;21.20;90.80;;;;;;5059055;28;20081;-78
2022/06/08 08:39:35;;;;;;;4.03;1.98;;;21.20;90.60;;;;;;5093282;28;20094;-78
2022/06/08 08:42:20;;;;;;;4.32;1.70;;;21.30;90.50;;;;;;5041723;28;20096;-78
2022/06/08 08:44:53;;;;;;;6.93;1.80;;;21.40;90.10;;;;;;5093578;28;20095;-78
2022/06/08 08:47:32;;;;;;;6.15;1.90;;;21.50;89.80;;;;;;5092978;28;20544;-78
2022/06/08 08:50:09;;;;;;;3.88;1.67;;;21.60;89.30;;;;;;5093364;28;20012;-78
2022/06/08 08:53:10;;;;;;;6.90;1.77;;;21.60;88.80;;;;;;5074886;28;20505;-78
2022/06/08 08:55:42;;;;;;;8.32;2.25;;;21.60;88.20;;;;;;5093092;28;20028;-78
2022/06/08 08:58:11;;;;;;;7.93;2.33;;;21.60;87.40;;;;;;5093008;28;20099;-78
2022/06/08 09:00:52;;;;;;;7.60;2.58;;;21.60;86.50;;;;;;5074480;28;20123;-77
2022/06/08 09:03:32;;;;;;;6.50;2.20;;;21.50;86.00;;;;;;5075314;28;20024;-77
2022/06/08 09:06:07;;;;;;;7.07;2.85;;;21.40;86.30;;;;;;5093126;28;20095;-78
2022/06/08 09:08:33;;;;;;;4.93;1.88;;;21.40;86.40;;;;;;5092851;28;20020;-78
2022/06/08 09:11:00;;;;;;;4.10;2.17;;;21.50;86.90;;;;;;5075133;28;20082;-79
2022/06/08 09:13:41;;;;;;;5.78;2.25;;;21.60;86.80;;;;;;5058355;28;20198;-77
2022/06/08 09:16:06;;;;;;;4.10;1.75;;;21.60;87.00;;;;;;5075160;28;20016;-77
2022/06/08 09:18:41;;;;;;;6.32;2.33;;;21.70;86.90;;;;;;5074999;28;20360;-78
2022/06/08 09:21:34;;;;;;;4.55;2.03;;;21.80;86.00;;;;;;5058073;28;20038;-77
2022/06/08 09:24:09;;;;;;;5.80;2.58;;;21.80;85.80;;;;;;5069238;28;20364;-77
2022/06/08 09:26:39;;;;;;;5.05;2.40;;;21.70;85.30;;;;;;5096756;28;20475;-78
2022/06/08 09:29:18;;;;;;;5.90;1.95;;;21.70;85.40;;;;;;5094456;28;20472;-77
2022/06/08 09:31:45;;;;;;;6.47;1.88;;;21.60;85.50;;;;;;5090677;28;20399;-78
2022/06/08 09:34:18;;;;;;;8.05;2.28;;;21.70;85.30;;;;;;5076693;28;20459;-78
2022/06/08 09:36:45;;;;;;;6.45;2.22;;;21.60;84.80;;;;;;5075296;28;20028;-78
2022/06/08 09:39:18;;;;;;;6.85;1.85;;;21.60;85.10;;;;;;5096459;28;20026;-78
2022/06/08 09:41:51;;;;;;;5.68;1.65;;;21.60;85.30;;;;;;5088647;28;20079;-78
2022/06/08 09:44:46;;;;;;;6.00;1.65;;;21.70;85.20;;;;;;5083059;28;20024;-78
2022/06/08 09:54:20;;;;;;;7.80;1.55;;;21.70;84.70;;;;;;5085283;28;20085;-78
2022/06/08 09:57:08;;;;;;;5.97;1.58;;;21.70;83.90;;;;;;5056434;28;20028;-77
2022/06/08 10:00:01;;;;;;;5.97;1.73;;;21.70;83.70;;;;;;5067699;28;20039;-77
2022/06/08 10:03:05;;;;;;;6.00;2.08;;;21.70;83.60;;;;;;5085017;28;20115;-77
2022/06/08 10:05:48;;;;;;;5.03;1.98;;;21.60;83.40;;;;;;5084676;28;20099;-77
2022/06/08 10:08:22;;;;;;;5.72;1.55;;;21.70;83.80;;;;;;5085032;28;20541;-78
2022/06/08 10:11:03;;;;;;;5.53;1.70;;;21.80;83.70;;;;;;5067782;28;20424;-78
2022/06/08 10:13:38;;;;;;;4.50;1.67;;;21.80;83.40;;;;;;5083648;28;20089;-77
2022/06/08 10:16:18;;;;;;;6.65;1.50;;;21.80;82.90;;;;;;5091955;28;20027;-78
2022/06/08 10:18:50;;;;;;;5.18;1.17;;;21.80;83.00;;;;;;5077604;28;20016;-78
2022/06/08 10:21:20;;;;;;;6.03;1.65;;;21.80;82.60;;;;;;5077107;28;20028;-81
2022/06/08 10:24:26;;;;;;;3.83;1.33;;;21.70;83.10;;;;;;5083222;28;20555;-80
2022/06/08 10:27:06;;;;;;;9.63;1.63;;;21.70;83.10;;;;;;4974248;28;20359;-81
2022/06/08 10:29:45;;;;;;;6.78;1.45;;;21.70;83.10;;;;;;5066432;28;20040;-81
2022/06/08 10:32:33;;;;;;;6.00;2.03;;;21.70;83.40;;;;;;5075345;28;20024;-81
2022/06/08 10:35:08;;;;;;;5.35;1.38;;;21.70;83.20;;;;;;5075042;28;20060;-82
2022/06/08 10:37:40;;;;;;;7.80;1.33;;;21.60;82.80;;;;;;5057399;28;20052;-81
2022/06/08 10:40:15;;;;;;;6.53;1.30;;;21.60;82.60;;;;;;5057010;28;20028;-81
2022/06/08 10:42:43;;;;;;;6.65;1.35;;;21.40;81.70;;;;;;5057359;28;20052;-80
2022/06/08 10:45:36;;;;;;;3.65;1.02;;;21.30;81.80;;;;;;5057357;28;20030;-81
2022/06/08 10:48:11;;;;;;;7.40;1.33;;;21.10;81.80;;;;;;5057480;28;20360;-81
2022/06/08 10:50:40;;;;;;;6.65;1.52;;;21.00;81.90;;;;;;5057184;28;20028;-81
2022/06/08 10:56:23;;;;;;;10.25;1.35;;;20.80;82.70;;;;;;5095575;28;20054;-81
2022/06/08 10:58:56;;;;;;;6.43;1.40;;;20.60;83.40;;;;;;5095772;28;20028;-80
2022/06/08 11:01:33;;;;;;;6.45;1.10;;;20.40;83.80;;;;;;5077333;28;20115;-80
2022/06/08 11:04:01;;;;;;;5.53;1.70;;;20.30;84.40;;;;;;5095159;28;20026;-81
2022/06/08 11:06:45;;;;;;;6.97;1.23;;;20.10;85.80;;;;;;5051487;28;20137;-81
2022/06/08 11:09:20;;;;;;;6.65;1.55;;;19.90;86.70;;;;;;5096021;28;20422;-81
2022/06/08 11:11:49;;;;;;;9.73;1.55;;;19.80;87.50;;;;;;5077901;28;20016;-80
2022/06/08 11:14:52;;;;;;;7.68;2.10;;;19.70;88.30;;;;;;5095866;28;20383;-81
2022/06/08 11:17:45;;;;;;;9.05;1.48;;;19.60;89.00;;;;;;5069783;28;20016;-82
2022/06/08 11:20:29;;;;;;;4.50;1.20;;;19.50;89.90;;;;;;5059818;28;20020;-82
2022/06/08 11:23:16;;;;;;;6.82;1.50;;;19.50;90.30;;;;;;5057393;28;20157;-81
2022/06/08 11:26:06;;;;;;;6.10;1.88;;;19.50;90.40;;;;;;5057471;28;20022;-81
2022/06/08 11:28:43;;;;;;;10.38;2.33;;;19.50;90.70;;;;;;5075153;28;20024;-82
2022/06/08 11:31:38;;;;;;;7.20;1.77;;;19.40;90.80;;;;;;5074907;28;20012;-81
2022/06/08 11:34:19;;;;;;;6.43;1.40;;;19.40;90.90;;;;;;5053163;28;20171;-80
2022/06/08 11:36:48;;;;;;;7.53;1.60;;;19.40;91.00;;;;;;5056862;28;20044;-82
2022/06/08 11:39:20;;;;;;;9.05;1.80;;;19.40;91.20;;;;;;5056104;28;20047;-80
2022/06/08 11:41:56;;;;;;;10.02;1.95;;;19.40;91.30;;;;;;5075214;28;20586;-81
2022/06/08 11:44:22;;;;;;;6.47;1.70;;;19.40;91.50;;;;;;5057764;28;20020;-80
2022/06/08 11:46:53;;;;;;;6.50;1.63;;;19.40;91.60;;;;;;5060943;28;20031;-82
2022/06/08 11:49:26;;;;;;;8.30;2.00;;;19.30;91.90;;;;;;5063966;28;20017;-81
2022/06/08 11:51:52;;;;;;;10.25;2.50;;;19.20;92.20;;;;;;5065982;28;20024;-82
2022/06/08 11:54:32;;;;;;;8.48;2.38;;;19.10;92.30;;;;;;5093206;28;20109;-80
2022/06/08 11:57:17;;;;;;;6.40;1.23;;;19.10;92.60;;;;;;5087313;28;20020;-79
2022/06/08 11:59:45;;;;;;;5.05;1.13;;;18.90;92.70;;;;;;5075381;28;20016;-79
2022/06/08 12:02:21;;;;;;;7.18;1.48;;;18.80;92.70;;;;;;5057582;28;20070;-80
2022/06/08 12:04:51;;;;;;;6.40;1.67;;;18.70;92.80;;;;;;5072826;28;20471;-80
2022/06/08 12:07:43;;;;;;;3.55;1.38;;;18.60;92.80;;;;;;5073750;28;20531;-80
2022/06/08 12:10:20;;;;;;;6.57;1.30;;;18.50;93.00;;;;;;5087372;28;20126;-79
2022/06/08 12:12:47;;;;;;;4.10;1.25;;;18.50;93.30;;;;;;5088931;28;20081;-79
2022/06/08 12:15:34;;;;;;;5.03;1.20;;;18.50;93.80;;;;;;5058769;28;20024;-81
2022/06/08 12:18:25;;;;;;;6.53;1.40;;;18.40;93.80;;;;;;5074580;28;20024;-79
2022/06/08 12:21:06;;;;;;;5.57;1.20;;;18.40;94.00;;;;;;5069146;28;20036;-79
2022/06/08 12:23:54;;;;;;;4.45;0.90;;;18.50;94.20;;;;;;5075534;28;20069;-79
2022/06/08 12:26:23;;;;;;;9.20;1.90;;;18.40;94.10;;;;;;5093410;28;20108;-80
2022/06/08 12:29:00;;;;;;;7.43;1.73;;;18.40;94.30;;;;;;5075295;28;20439;-79
2022/06/08 12:31:31;;;;;;;4.25;0.98;;;18.40;94.90;;;;;;5093227;28;20098;-79
2022/06/08 12:33:56;;;;;;;8.55;1.50;;;18.40;94.80;;;;;;5087942;28;20012;-80
2022/06/08 12:36:31;;;;;;;5.53;1.52;;;18.40;94.90;;;;;;5076154;28;20525;-79
2022/06/08 12:39:08;;;;;;;5.85;1.80;;;18.40;95.10;;;;;;5089972;28;20024;-80
2022/06/08 12:41:43;;;;;;;7.43;1.10;;;18.50;95.20;;;;;;5074341;28;20552;-80
2022/06/08 12:44:18;;;;;;;3.42;0.93;;;18.50;95.10;;;;;;5074899;28;20024;-80
2022/06/08 12:47:19;;;;;;;7.07;1.48;;;18.60;95.20;;;;;;5074935;28;20065;-80
2022/06/08 12:49:54;;;;;;;5.43;1.20;;;18.60;95.00;;;;;;5056644;28;20033;-80
2022/06/08 12:52:22;;;;;;;7.90;1.60;;;18.50;95.10;;;;;;5070188;28;20031;-80
2022/06/08 12:54:48;;;;;;;7.78;1.67;;;18.50;95.20;;;;;;5069499;28;20020;-80
2022/06/08 12:57:18;;;;;;;7.35;1.50;;;18.50;95.20;;;;;;5075217;28;20509;-80
2022/06/08 12:59:45;;;;;;;2.72;1.00;;;18.50;95.40;;;;;;5077502;28;20077;-79
2022/06/08 13:02:17;;;;;;;9.15;2.00;;;18.40;95.50;;;;;;5077823;28;20048;-80
2022/06/08 13:04:43;;;;;;;4.13;1.25;;;18.50;95.70;;;;;;5076843;28;20024;-79
2022/06/08 13:07:14;;;;;;;3.53;1.35;;;18.50;95.80;;;;;;5076991;28;20020;-80
2022/06/08 13:09:40;;;;;;;4.53;1.20;;;18.50;95.80;;;;;;5096793;28;20075;-81
2022/06/08 13:12:09;;;;;;;4.43;1.42;;;18.50;95.80;;;;;;5061365;28;20048;-80
2022/06/08 13:14:36;;;;;;;5.25;1.60;;;18.50;96.00;;;;;;5062274;28;20024;-79
2022/06/08 13:17:02;;;;;;;4.50;1.10;;;18.50;96.20;;;;;;5059751;28;20024;-80